Time;durP1;ratioP1;P1;durP2;ratioP2;P2;SDS_P1;SDS_P2;PMS_P1;PMS_P2;Temp;Humidity;BMP_temperature;BMP_pressure;BME280_temperature;BME280_humidity;BME280_pressure;Samples;Min_cycle;Max_cycle;Signal;HPM_P1;HPM_P2
2021/11/20 00:02:27;;;;;;;10.15;5.03;;;;;;;11.30;100.00;101552.19;5024822;28;20489;-82
2021/11/20 00:04:58;;;;;;;10.75;5.40;;;;;;;11.29;100.00;101555.72;5058141;28;20153;-81
2021/11/20 00:07:28;;;;;;;11.20;4.88;;;;;;;11.26;100.00;101555.03;5047610;28;20066;-85
2021/11/20 00:09:57;;;;;;;10.18;5.07;;;;;;;11.25;100.00;101548.03;5040769;28;20040;-84
2021/11/20 00:12:30;;;;;;;17.13;5.55;;;;;;;11.26;100.00;101537.44;5039961;28;20065;-83
2021/11/20 00:15:11;;;;;;;15.63;4.50;;;;;;;11.28;100.00;101546.09;5047839;28;20040;-83
2021/11/20 00:17:39;;;;;;;11.45;5.05;;;;;;;11.30;100.00;101553.94;5060500;28;20044;-83
2021/11/20 00:20:11;;;;;;;14.02;5.97;;;;;;;11.30;100.00;101551.28;5031507;28;20125;-83
2021/11/20 00:22:41;;;;;;;15.77;5.90;;;;;;;11.27;100.00;101552.31;5070631;28;20052;-83
2021/11/20 00:25:50;;;;;;;16.02;5.65;;;;;;;11.24;100.00;101549.81;5052538;28;20047;-83
2021/11/20 00:28:41;;;;;;;14.10;6.00;;;;;;;11.21;100.00;101546.44;5042381;28;20131;-83
2021/11/20 00:31:14;;;;;;;15.57;6.30;;;;;;;11.24;100.00;101552.44;5053972;28;20447;-83
2021/11/20 00:33:42;;;;;;;13.35;5.28;;;;;;;11.25;100.00;101554.16;5062644;28;20041;-83
2021/11/20 00:36:11;;;;;;;12.50;5.13;;;;;;;11.22;100.00;101548.19;5050902;28;20684;-82
2021/11/20 00:38:40;;;;;;;12.63;5.65;;;;;;;11.29;100.00;101539.91;5027354;28;20738;-82
2021/11/20 00:41:18;;;;;;;10.93;5.47;;;;;;;11.22;100.00;101540.28;5043625;28;20060;-84
2021/11/20 00:43:47;;;;;;;14.88;6.07;;;;;;;11.18;100.00;101544.84;5044044;28;20575;-84
2021/11/20 00:46:17;;;;;;;12.35;5.65;;;;;;;11.21;100.00;101539.41;5050333;28;20060;-83
2021/11/20 00:48:47;;;;;;;13.65;5.88;;;;;;;11.18;100.00;101541.34;5054217;28;20090;-84
2021/11/20 00:51:17;;;;;;;9.60;5.85;;;;;;;11.19;100.00;101543.91;5042508;28;20049;-82
2021/11/20 00:53:45;;;;;;;19.27;5.70;;;;;;;11.19;100.00;101540.41;5048229;28;20045;-81
2021/11/20 00:56:14;;;;;;;13.77;6.38;;;;;;;11.21;100.00;101542.03;5060721;28;20486;-83
2021/11/20 00:58:43;;;;;;;11.88;6.25;;;;;;;11.22;100.00;101548.19;5029102;28;20052;-83
2021/11/20 01:01:17;;;;;;;12.20;5.60;;;;;;;11.22;100.00;101546.41;5064021;28;20076;-82
2021/11/20 01:03:46;;;;;;;16.90;5.67;;;;;;;11.31;100.00;101547.75;5062610;28;20048;-84
2021/11/20 01:06:19;;;;;;;12.73;5.22;;;;;;;11.22;100.00;101550.81;5076740;28;20060;-80
2021/11/20 01:08:49;;;;;;;17.50;6.35;;;;;;;11.21;100.00;101544.66;5028552;28;20078;-83
2021/11/20 01:11:28;;;;;;;13.32;6.15;;;;;;;11.13;100.00;101542.41;5021716;28;20522;-83
2021/11/20 01:13:59;;;;;;;12.88;5.45;;;;;;;11.17;100.00;101548.41;5061333;28;20374;-83
2021/11/20 01:16:33;;;;;;;19.95;6.10;;;;;;;11.22;100.00;101553.47;5030636;28;20069;-84
2021/11/20 01:19:04;;;;;;;14.27;5.30;;;;;;;11.19;100.00;101546.53;5060887;28;20123;-83
2021/11/20 01:21:34;;;;;;;13.32;5.25;;;;;;;11.16;100.00;101536.13;5053205;28;20037;-83
2021/11/20 01:24:08;;;;;;;15.73;6.18;;;;;;;11.13;100.00;101537.16;5030869;28;20052;-84
2021/11/20 01:26:39;;;;;;;13.30;5.78;;;;;;;11.15;100.00;101556.34;5027612;28;20048;-83
2021/11/20 01:29:14;;;;;;;12.05;5.50;;;;;;;11.11;100.00;101551.31;5045728;28;20036;-83
2021/11/20 01:31:46;;;;;;;13.43;5.20;;;;;;;11.08;100.00;101560.22;5049437;28;20053;-82
2021/11/20 01:34:18;;;;;;;16.95;6.13;;;;;;;11.13;100.00;101549.47;5065802;28;20086;-84
2021/11/20 01:36:52;;;;;;;12.13;5.50;;;;;;;11.11;100.00;101541.63;5047205;28;20289;-82
2021/11/20 01:39:26;;;;;;;11.38;5.70;;;;;;;11.13;100.00;101554.75;5033001;28;20052;-84
2021/11/20 01:42:14;;;;;;;10.10;4.70;;;;;;;11.09;100.00;101547.91;5066155;28;20569;-84
2021/11/20 01:44:58;;;;;;;13.90;4.90;;;;;;;11.08;100.00;101541.78;5081205;28;20040;-81
2021/11/20 01:47:33;;;;;;;8.65;5.35;;;;;;;11.12;100.00;101538.06;5066185;28;20085;-82
2021/11/20 01:50:33;;;;;;;12.77;5.70;;;;;;;11.06;100.00;101540.13;5069180;28;20612;-82
2021/11/20 01:53:18;;;;;;;12.18;5.47;;;;;;;11.04;100.00;101539.34;5030636;28;20051;-84
2021/11/20 01:56:01;;;;;;;12.35;4.95;;;;;;;11.03;100.00;101550.78;5064912;28;20135;-83
2021/11/20 01:58:56;;;;;;;14.63;5.20;;;;;;;11.08;100.00;101546.19;5040723;28;20056;-82
2021/11/20 02:01:29;;;;;;;10.60;5.25;;;;;;;11.10;100.00;101552.22;5069742;28;20081;-84
2021/11/20 02:04:07;;;;;;;12.25;5.22;;;;;;;11.11;100.00;101546.03;5061390;28;20098;-83
2021/11/20 02:06:55;;;;;;;9.23;4.60;;;;;;;11.12;100.00;101571.44;5065357;28;20087;-83
2021/11/20 02:09:25;;;;;;;;;;;;;;;11.10;100.00;101542.53;5037982;28;20049;-82
2021/11/20 02:12:00;;;;;;;8.60;4.35;;;;;;;11.10;100.00;101558.34;5063330;28;19926;-83
2021/11/20 02:14:30;;;;;;;8.02;4.20;;;;;;;11.02;100.00;101546.47;5044063;28;20049;-82
2021/11/20 02:17:03;;;;;;;12.40;4.10;;;;;;;11.04;100.00;101544.63;5048199;28;20242;-82
2021/11/20 02:19:38;;;;;;;12.52;4.55;;;;;;;11.04;100.00;101545.47;5062852;28;20115;-82
2021/11/20 02:22:32;;;;;;;15.07;4.47;;;;;;;11.07;100.00;101555.00;5060418;28;20068;-82
2021/11/20 02:25:02;;;;;;;10.70;4.25;;;;;;;11.05;100.00;101552.44;5061732;28;20041;-82
2021/11/20 02:27:36;;;;;;;7.93;3.63;;;;;;;11.00;100.00;101550.97;5067742;28;20044;-81
2021/11/20 02:30:29;;;;;;;9.40;3.70;;;;;;;10.98;100.00;101558.91;5058341;28;20045;-83
2021/11/20 02:33:17;;;;;;;9.15;3.92;;;;;;;10.98;100.00;101544.88;5075283;28;20150;-83
2021/11/20 02:36:20;;;;;;;5.07;3.35;;;;;;;10.96;100.00;101546.75;5076353;28;20071;-81
2021/11/20 02:39:13;;;;;;;8.80;3.17;;;;;;;10.98;100.00;101534.34;5067875;28;20074;-83
2021/11/20 02:41:47;;;;;;;6.97;2.90;;;;;;;10.99;100.00;101533.44;5060887;28;20551;-84
2021/11/20 02:44:20;;;;;;;9.25;3.17;;;;;;;10.99;100.00;101536.94;5037090;28;20056;-81
2021/11/20 02:46:55;;;;;;;7.57;3.00;;;;;;;11.03;100.00;101527.97;5031722;28;20045;-81
2021/11/20 02:49:23;;;;;;;5.68;3.20;;;;;;;11.01;100.00;101542.97;5064654;28;20537;-81
2021/11/20 02:51:55;;;;;;;8.50;3.33;;;;;;;11.00;100.00;101541.28;5040373;28;20582;-83
2021/11/20 02:54:27;;;;;;;8.57;3.00;;;;;;;10.97;100.00;101532.66;5051405;28;20048;-81
2021/11/20 02:56:58;;;;;;;10.85;3.10;;;;;;;11.02;100.00;101535.91;5043553;28;20052;-82
2021/11/20 02:59:28;;;;;;;5.63;2.60;;;;;;;11.02;100.00;101536.78;5077670;28;20048;-82
2021/11/20 03:01:57;;;;;;;6.78;3.15;;;;;;;11.00;100.00;101537.78;5049490;28;20065;-84
2021/11/20 03:04:26;;;;;;;5.90;3.25;;;;;;;10.93;100.00;101536.34;5060087;28;20040;-83
2021/11/20 03:06:55;;;;;;;8.30;3.30;;;;;;;10.94;100.00;101538.03;5037490;28;20041;-82
2021/11/20 03:09:26;;;;;;;7.90;3.53;;;;;;;11.01;100.00;101535.06;5065961;28;20495;-81
2021/11/20 03:11:55;;;;;;;9.30;3.20;;;;;;;10.94;100.00;101531.00;5051018;28;20064;-83
2021/11/20 03:14:24;;;;;;;8.52;3.25;;;;;;;10.92;100.00;101532.00;5036053;28;20056;-82
2021/11/20 03:16:56;;;;;;;8.13;3.47;;;;;;;10.96;100.00;101530.94;5036751;28;20036;-82
2021/11/20 03:19:27;;;;;;;9.30;4.20;;;;;;;10.89;100.00;101531.22;5059835;28;20510;-82
2021/11/20 03:22:11;;;;;;;6.22;3.50;;;;;;;10.85;100.00;101534.03;5061737;28;20163;-80
2021/11/20 03:24:44;;;;;;;8.80;3.55;;;;;;;10.86;100.00;101525.25;5043833;28;20045;-82
2021/11/20 03:27:12;;;;;;;4.88;3.25;;;;;;;10.81;100.00;101532.50;5069518;28;20068;-83
2021/11/20 03:29:41;;;;;;;8.32;3.35;;;;;;;10.79;100.00;101523.81;5061638;28;20060;-81
2021/11/20 03:32:09;;;;;;;9.20;4.57;;;;;;;10.71;100.00;101525.94;5057089;28;20045;-82
2021/11/20 03:34:41;;;;;;;6.93;3.83;;;;;;;10.63;100.00;101523.66;5047939;28;20386;-82
2021/11/20 03:37:09;;;;;;;5.95;4.05;;;;;;;10.68;100.00;101526.94;5062083;28;20125;-83
2021/11/20 03:39:37;;;;;;;6.22;3.63;;;;;;;10.61;100.00;101522.84;5059450;28;20587;-81
2021/11/20 03:42:07;;;;;;;8.40;4.07;;;;;;;10.64;100.00;101514.81;5048939;28;20055;-82
2021/11/20 03:44:34;;;;;;;9.27;4.28;;;;;;;10.58;100.00;101508.06;5034800;28;20139;-81
2021/11/20 03:47:04;;;;;;;10.15;4.35;;;;;;;10.53;100.00;101502.13;5057603;28;20117;-80
2021/11/20 03:49:35;;;;;;;10.35;4.38;;;;;;;10.51;100.00;101503.13;5051336;28;20132;-83
2021/11/20 03:52:07;;;;;;;6.28;3.38;;;;;;;10.55;100.00;101502.06;5059446;28;20463;-82
2021/11/20 03:54:36;;;;;;;5.38;3.40;;;;;;;10.55;100.00;101516.09;5024162;28;20055;-82
2021/11/20 03:57:05;;;;;;;6.13;3.88;;;;;;;10.57;100.00;101506.34;5063151;28;20052;-81
2021/11/20 03:59:35;;;;;;;6.40;3.30;;;;;;;10.57;100.00;101498.44;5061710;28;20078;-83
2021/11/20 04:02:04;;;;;;;6.57;3.53;;;;;;;10.57;100.00;101497.56;5049614;28;20403;-83
2021/11/20 04:04:35;;;;;;;11.80;4.20;;;;;;;10.53;100.00;101501.28;5056784;28;20044;-83
2021/11/20 04:07:03;;;;;;;6.25;3.88;;;;;;;10.56;100.00;101485.34;5042507;28;20049;-81
2021/11/20 04:09:33;;;;;;;8.80;3.72;;;;;;;10.53;100.00;101496.84;5052061;28;20049;-83
2021/11/20 04:12:02;;;;;;;6.07;3.22;;;;;;;10.56;100.00;101493.25;5055552;28;20137;-84
2021/11/20 04:14:30;;;;;;;8.20;3.58;;;;;;;10.56;100.00;101488.84;5035831;28;20439;-84
2021/11/20 04:16:58;;;;;;;5.32;2.97;;;;;;;10.57;100.00;101490.53;5051979;28;20063;-81
2021/11/20 04:19:28;;;;;;;9.27;3.58;;;;;;;10.58;100.00;101489.63;5061032;28;20059;-81
2021/11/20 04:21:55;;;;;;;6.45;3.20;;;;;;;10.64;100.00;101486.72;5033584;28;20128;-83
2021/11/20 04:24:25;;;;;;;5.80;3.28;;;;;;;10.67;100.00;101483.06;5067220;28;20171;-82
2021/11/20 04:26:52;;;;;;;7.88;3.13;;;;;;;10.60;100.00;101486.91;5037813;28;20133;-82
2021/11/20 04:29:21;;;;;;;6.20;3.38;;;;;;;10.62;100.00;101490.31;5058217;28;20045;-85
2021/11/20 04:31:49;;;;;;;5.68;3.13;;;;;;;10.62;100.00;101495.59;5067665;28;20056;-84
2021/11/20 04:34:20;;;;;;;9.30;3.40;;;;;;;10.62;100.00;101485.91;5075438;28;20049;-83
2021/11/20 04:36:50;;;;;;;5.28;3.00;;;;;;;10.59;100.00;101491.34;5052086;28;20064;-82
2021/11/20 04:39:18;;;;;;;5.50;3.42;;;;;;;10.59;100.00;101490.47;5026305;28;20061;-83
2021/11/20 04:41:45;;;;;;;7.35;3.40;;;;;;;10.60;100.00;101493.03;5036566;28;20036;-84
2021/11/20 04:44:16;;;;;;;6.32;3.13;;;;;;;10.64;100.00;101489.34;5030452;28;20132;-84
2021/11/20 04:46:45;;;;;;;5.68;2.90;;;;;;;10.61;100.00;101493.88;5053108;28;20028;-84
2021/11/20 04:49:17;;;;;;;7.55;3.75;;;;;;;10.60;100.00;101489.56;5063952;28;20542;-85
2021/11/20 04:51:46;;;;;;;5.95;3.70;;;;;;;10.57;100.00;101485.25;5033213;28;20127;-81
2021/11/20 04:54:14;;;;;;;6.03;3.20;;;;;;;10.59;100.00;101493.13;5032407;28;20043;-83
2021/11/20 04:56:43;;;;;;;7.63;3.72;;;;;;;10.58;100.00;101491.38;5036880;28;20048;-82
2021/11/20 04:59:13;;;;;;;5.43;3.47;;;;;;;10.55;100.00;101487.13;5044749;28;20051;-85
2021/11/20 05:01:41;;;;;;;12.93;3.97;;;;;;;10.57;100.00;101487.91;5023729;28;20045;-83
2021/11/20 05:04:10;;;;;;;5.60;2.92;;;;;;;10.59;100.00;101490.47;5033931;28;20158;-82
2021/11/20 05:06:39;;;;;;;6.60;3.30;;;;;;;10.61;100.00;101496.53;5043954;28;20041;-83
2021/11/20 05:09:07;;;;;;;6.80;3.78;;;;;;;10.60;100.00;101498.31;5070061;28;20052;-82
2021/11/20 05:11:35;;;;;;;6.43;3.30;;;;;;;10.56;100.00;101496.72;5069145;28;20547;-81
2021/11/20 05:14:03;;;;;;;10.43;3.70;;;;;;;10.56;100.00;101509.91;5070725;28;20220;-84
2021/11/20 05:16:31;;;;;;;6.57;3.85;;;;;;;10.57;100.00;101506.34;5035361;28;20078;-83
2021/11/20 05:18:59;;;;;;;5.43;3.22;;;;;;;10.58;100.00;101497.53;5072342;28;20045;-84
2021/11/20 05:21:26;;;;;;;7.15;3.88;;;;;;;10.54;100.00;101495.97;5054794;28;20566;-84
2021/11/20 05:23:54;;;;;;;6.15;3.35;;;;;;;10.48;100.00;101495.38;5053751;28;20045;-82
2021/11/20 05:26:21;;;;;;;7.18;3.63;;;;;;;10.52;100.00;101502.19;5068643;28;20050;-82
2021/11/20 05:28:58;;;;;;;7.25;3.85;;;;;;;10.51;100.00;101498.72;5028343;28;20095;-84
2021/11/20 05:31:25;;;;;;;6.22;3.88;;;;;;;10.51;100.00;101501.34;5055322;28;20064;-83
2021/11/20 05:33:57;;;;;;;4.88;3.55;;;;;;;10.50;100.00;101486.47;5043460;28;20040;-83
2021/11/20 05:36:30;;;;;;;19.40;4.57;;;;;;;10.50;100.00;101493.53;5049643;28;20135;-83
2021/11/20 05:38:59;;;;;;;6.25;3.10;;;;;;;10.47;100.00;101501.56;5065727;28;20048;-84
2021/11/20 05:41:29;;;;;;;8.90;3.88;;;;;;;10.47;100.00;101489.25;5047604;28;20521;-83
2021/11/20 05:43:58;;;;;;;7.70;3.90;;;;;;;10.43;100.00;101494.72;5040290;28;20040;-83
2021/11/20 05:46:26;;;;;;;9.82;4.10;;;;;;;10.45;100.00;101490.25;5049030;28;20507;-85
2021/11/20 05:48:53;;;;;;;7.45;3.47;;;;;;;10.46;100.00;101484.91;5072390;28;20059;-82
2021/11/20 05:51:22;;;;;;;6.47;3.88;;;;;;;10.44;100.00;101489.38;5067618;28;20182;-83
2021/11/20 05:53:53;;;;;;;8.93;3.65;;;;;;;10.43;100.00;101492.94;5049847;28;20503;-84
2021/11/20 05:56:21;;;;;;;12.20;3.53;;;;;;;10.46;100.00;101491.97;5033226;28;20136;-83
2021/11/20 05:59:10;;;;;;;5.60;3.13;;;;;;;10.46;100.00;101495.44;5068267;28;20056;-83
2021/11/20 06:01:38;;;;;;;6.15;2.90;;;;;;;10.46;100.00;101499.84;5034178;28;20459;-81
2021/11/20 06:04:06;;;;;;;6.30;2.97;;;;;;;10.49;100.00;101490.03;5072788;28;20136;-83
2021/11/20 06:06:35;;;;;;;7.35;3.30;;;;;;;10.53;100.00;101488.97;5060724;28;20143;-84
2021/11/20 06:09:04;;;;;;;7.18;3.58;;;;;;;10.49;100.00;101481.28;5038769;28;20147;-83
2021/11/20 06:11:37;;;;;;;4.43;2.40;;;;;;;10.46;100.00;101484.91;5054616;28;20124;-85
2021/11/20 06:14:06;;;;;;;8.40;2.63;;;;;;;10.48;100.00;101493.59;5038064;28;20102;-83
2021/11/20 06:16:35;;;;;;;6.85;2.95;;;;;;;10.50;100.00;101494.38;5067211;28;20043;-82
2021/11/20 06:19:04;;;;;;;4.10;2.53;;;;;;;10.57;100.00;101492.31;5026120;28;20052;-84
2021/11/20 06:21:32;;;;;;;6.32;3.38;;;;;;;10.49;100.00;101500.56;5044056;28;20040;-84
2021/11/20 06:24:01;;;;;;;6.90;2.90;;;;;;;10.49;100.00;101495.31;5045382;28;20045;-84
2021/11/20 06:26:29;;;;;;;5.90;2.55;;;;;;;10.48;100.00;101498.84;5068822;28;20056;-82
2021/11/20 06:28:57;;;;;;;6.03;3.13;;;;;;;10.48;100.00;101503.25;5039003;28;20049;-84
2021/11/20 06:31:27;;;;;;;4.28;1.92;;;;;;;10.50;100.00;101498.78;5045927;28;20141;-83
2021/11/20 06:33:55;;;;;;;5.22;2.53;;;;;;;10.46;100.00;101495.44;5044470;28;20047;-83
2021/11/20 06:36:24;;;;;;;5.70;2.70;;;;;;;10.52;100.00;101504.84;5058787;28;20508;-83
2021/11/20 06:38:51;;;;;;;5.13;3.30;;;;;;;10.50;100.00;101497.00;5062510;28;20075;-82
2021/11/20 06:41:20;;;;;;;6.55;2.65;;;;;;;10.49;100.00;101505.84;5051750;28;20561;-83
2021/11/20 06:43:47;;;;;;;4.65;2.90;;;;;;;10.51;100.00;101509.25;5047225;28;20039;-84
2021/11/20 06:46:17;;;;;;;9.23;2.95;;;;;;;10.53;100.00;101504.75;5035312;28;20083;-86
2021/11/20 06:48:46;;;;;;;4.57;2.88;;;;;;;10.48;100.00;101503.25;5044315;28;20063;-84
2021/11/20 06:51:14;;;;;;;5.13;2.25;;;;;;;10.44;100.00;101510.44;5063876;28;20047;-85
2021/11/20 06:53:43;;;;;;;6.00;3.00;;;;;;;10.58;100.00;101499.28;5044539;28;20100;-81
2021/11/20 06:56:15;;;;;;;5.60;2.72;;;;;;;10.54;100.00;101510.91;5040628;28;20090;-85
2021/11/20 07:01:29;;;;;;;5.32;2.90;;;;;;;10.44;100.00;101515.69;5066421;28;20040;-84
2021/11/20 07:04:04;;;;;;;7.40;3.20;;;;;;;10.39;100.00;101515.91;5041172;28;20064;-86
2021/11/20 07:06:38;;;;;;;7.82;3.38;;;;;;;10.34;100.00;101519.66;5065114;28;20131;-84
2021/11/20 07:09:05;;;;;;;10.77;3.83;;;;;;;10.28;100.00;101515.53;5047620;28;20132;-85
2021/11/20 07:11:32;;;;;;;7.88;3.75;;;;;;;10.28;100.00;101523.41;5044855;28;20136;-83
2021/11/20 07:14:00;;;;;;;6.85;4.22;;;;;;;10.26;100.00;101524.41;5033519;28;20049;-82
2021/11/20 07:16:28;;;;;;;7.85;3.85;;;;;;;10.21;100.00;101527.19;5073093;28;20123;-84
2021/11/20 07:18:56;;;;;;;9.55;4.30;;;;;;;10.17;100.00;101527.38;5052135;28;20055;-81
2021/11/20 07:21:27;;;;;;;7.30;3.78;;;;;;;10.18;100.00;101534.34;5062334;28;20045;-85
2021/11/20 07:23:57;;;;;;;7.45;4.13;;;;;;;10.13;100.00;101521.41;5064982;28;20495;-83
2021/11/20 07:26:27;;;;;;;9.65;3.97;;;;;;;10.18;100.00;101535.25;5060390;28;20212;-84
2021/11/20 07:28:55;;;;;;;8.75;4.03;;;;;;;10.19;100.00;101536.09;5042435;28;20052;-80
2021/11/20 07:31:41;;;;;;;9.10;4.60;;;;;;;10.14;100.00;101518.72;5052360;28;20443;-82
2021/11/20 07:34:09;;;;;;;10.00;5.00;;;;;;;10.22;100.00;101531.56;5056984;28;20068;-84
2021/11/20 07:36:37;;;;;;;6.70;4.45;;;;;;;10.19;100.00;101523.78;5047640;28;20059;-83
2021/11/20 07:39:08;;;;;;;9.85;5.47;;;;;;;10.19;100.00;101521.16;5064808;28;20260;-84
2021/11/20 07:41:36;;;;;;;9.70;4.97;;;;;;;10.20;100.00;101512.34;5028155;28;20045;-81
2021/11/20 07:44:03;;;;;;;7.38;5.18;;;;;;;10.20;100.00;101501.81;5063610;28;20064;-87
2021/11/20 07:46:30;;;;;;;8.05;5.20;;;;;;;10.26;100.00;101503.34;5053559;28;20067;-83
2021/11/20 07:48:59;;;;;;;7.47;5.10;;;;;;;10.22;100.00;101501.72;5039373;28;20048;-85
2021/11/20 07:51:28;;;;;;;10.00;5.35;;;;;;;10.26;100.00;101496.31;5054870;28;20052;-82
2021/11/20 07:53:55;;;;;;;10.95;4.45;;;;;;;10.31;100.00;101496.09;5062516;28;20136;-83
2021/11/20 07:56:25;;;;;;;8.77;5.13;;;;;;;10.32;100.00;101490.78;5036461;28;20155;-82
2021/11/20 07:58:53;;;;;;;10.30;6.05;;;;;;;10.25;100.00;101491.97;5063461;28;20048;-83
2021/11/20 08:01:24;;;;;;;10.15;5.60;;;;;;;10.25;100.00;101499.00;5038561;28;20060;-85
2021/11/20 08:03:55;;;;;;;10.18;5.65;;;;;;;10.28;100.00;101480.47;5041031;28;20048;-83
2021/11/20 08:06:23;;;;;;;9.48;5.65;;;;;;;10.23;100.00;101478.00;5036679;28;20060;-83
2021/11/20 08:08:51;;;;;;;13.07;5.65;;;;;;;10.22;100.00;101478.03;5064605;28;20069;-83
2021/11/20 08:11:21;;;;;;;11.68;6.00;;;;;;;10.21;100.00;101479.81;5060955;28;20036;-84
2021/11/20 08:13:54;;;;;;;12.45;5.97;;;;;;;10.23;100.00;101482.41;5061286;28;20052;-86
2021/11/20 08:16:26;;;;;;;18.15;6.47;;;;;;;10.17;100.00;101478.25;5055356;28;20105;-86
2021/11/20 08:18:58;;;;;;;11.52;6.50;;;;;;;10.23;100.00;101472.75;5046724;28;20090;-84
2021/11/20 08:21:28;;;;;;;11.32;6.82;;;;;;;10.28;100.00;101469.94;5067734;28;20500;-83
2021/11/20 08:23:58;;;;;;;13.15;6.82;;;;;;;10.23;100.00;101469.25;5068886;28;20404;-84
2021/11/20 08:26:35;;;;;;;15.52;7.05;;;;;;;10.24;100.00;101458.69;5070988;28;20052;-83
2021/11/20 08:29:09;;;;;;;12.98;7.05;;;;;;;10.36;100.00;101463.41;5045343;28;20052;-83
2021/11/20 08:31:44;;;;;;;11.67;7.03;;;;;;;10.38;100.00;101455.44;5070483;28;20032;-84
2021/11/20 08:34:14;;;;;;;18.05;7.07;;;;;;;10.38;100.00;101458.06;5059669;28;20085;-82
2021/11/20 08:36:44;;;;;;;14.48;7.35;;;;;;;10.36;100.00;101452.88;5079218;28;20164;-83
2021/11/20 08:39:19;;;;;;;13.40;7.32;;;;;;;10.41;100.00;101455.31;5056291;28;20044;-84
2021/11/20 08:41:48;;;;;;;12.57;6.90;;;;;;;10.42;100.00;101449.13;5063638;28;20097;-87
2021/11/20 08:44:17;;;;;;;17.55;6.97;;;;;;;10.44;100.00;101444.63;5022304;28;20503;-88
2021/11/20 08:46:46;;;;;;;16.20;7.78;;;;;;;10.49;100.00;101444.41;5061751;28;20495;-86
2021/11/20 08:49:16;;;;;;;16.58;7.65;;;;;;;10.55;100.00;101436.25;5032618;28;20124;-83
2021/11/20 08:51:45;;;;;;;17.85;7.13;;;;;;;10.61;100.00;101438.59;5048113;28;20058;-86
2021/11/20 08:54:13;;;;;;;14.35;6.72;;;;;;;10.67;100.00;101433.03;5073880;28;20068;-85
2021/11/20 08:56:45;;;;;;;16.80;6.68;;;;;;;10.87;100.00;101438.25;5076470;28;20140;-85
2021/11/20 08:59:22;;;;;;;11.82;6.32;;;;;;;10.94;100.00;101430.03;5058252;28;20084;-84
2021/11/20 09:02:15;;;;;;;11.20;6.60;;;;;;;10.92;100.00;101432.75;5052830;28;20048;-83
2021/11/20 09:04:51;;;;;;;11.45;6.80;;;;;;;10.81;100.00;101425.38;5072413;28;20041;-82
2021/11/20 09:07:50;;;;;;;17.13;6.63;;;;;;;10.82;100.00;101423.59;5077522;28;20198;-84
2021/11/20 09:10:32;;;;;;;15.07;6.38;;;;;;;10.79;100.00;101427.19;5056287;28;20053;-85
2021/11/20 09:13:21;;;;;;;21.15;6.93;;;;;;;10.79;100.00;101415.81;5057318;28;20044;-85
2021/11/20 09:16:00;;;;;;;14.25;6.53;;;;;;;10.78;100.00;101414.13;5075486;28;20050;-85
2021/11/20 09:18:30;;;;;;;11.88;5.95;;;;;;;10.75;100.00;101415.09;5070661;28;20072;-83
2021/11/20 09:21:01;;;;;;;8.73;6.43;;;;;;;10.76;100.00;101422.09;5042254;28;20503;-84
2021/11/20 09:23:37;;;;;;;17.60;6.35;;;;;;;10.73;100.00;101429.28;5041244;28;20042;-84
2021/11/20 09:26:15;;;;;;;10.55;6.45;;;;;;;10.80;100.00;101420.16;5059582;28;20055;-86
2021/11/20 09:28:55;;;;;;;13.55;6.70;;;;;;;10.85;100.00;101412.88;5040677;28;20068;-84
2021/11/20 09:31:25;;;;;;;12.60;6.68;;;;;;;10.84;100.00;101413.81;5063391;28;20071;-83
2021/11/20 09:33:56;;;;;;;17.80;5.97;;;;;;;10.89;100.00;101409.19;5042008;28;20050;-83
2021/11/20 09:36:25;;;;;;;12.02;5.25;;;;;;;10.83;100.00;101414.75;5077695;28;20075;-83
2021/11/20 09:38:57;;;;;;;16.27;5.35;;;;;;;10.85;100.00;101418.16;5077281;28;20059;-84
2021/11/20 09:41:58;;;;;;;11.70;5.10;;;;;;;10.81;100.00;101419.25;5052110;28;20115;-83
2021/11/20 09:44:33;;;;;;;15.35;5.47;;;;;;;10.82;100.00;101416.53;5059306;28;20053;-83
2021/11/20 09:47:29;;;;;;;16.58;5.10;;;;;;;10.86;100.00;101410.19;5049103;28;20500;-83
2021/11/20 09:50:27;;;;;;;13.38;4.88;;;;;;;10.78;100.00;101404.44;5057023;28;20068;-85
2021/11/20 09:52:55;;;;;;;13.55;5.75;;;;;;;10.81;100.00;101406.09;5051862;28;20284;-83
2021/11/20 09:55:26;;;;;;;11.80;5.00;;;;;;;10.81;100.00;101411.34;5061241;28;20126;-83
2021/11/20 09:58:19;;;;;;;9.32;4.60;;;;;;;10.86;100.00;101404.06;5070914;28;20116;-83
2021/11/20 10:01:22;;;;;;;10.50;4.75;;;;;;;10.78;100.00;101409.69;5068342;28;20048;-83
2021/11/20 10:04:02;;;;;;;11.85;4.38;;;;;;;10.80;100.00;101402.56;5069125;28;20208;-86
2021/11/20 10:06:44;;;;;;;10.32;4.25;;;;;;;10.83;100.00;101399.78;5069151;28;20048;-83
2021/11/20 10:09:20;;;;;;;12.23;4.70;;;;;;;10.91;100.00;101391.53;5056416;28;20037;-84
2021/11/20 10:12:00;;;;;;;11.32;4.50;;;;;;;10.99;100.00;101394.66;5069963;28;20036;-83
2021/11/20 10:14:42;;;;;;;12.15;4.97;;;;;;;10.99;100.00;101393.81;5067802;28;20049;-83
2021/11/20 10:17:41;;;;;;;12.18;4.50;;;;;;;11.06;100.00;101392.56;5051800;28;20041;-85
2021/11/20 10:20:23;;;;;;;10.63;4.35;;;;;;;11.10;100.00;101380.94;5017638;28;20049;-84
2021/11/20 10:22:58;;;;;;;12.38;4.40;;;;;;;11.21;100.00;101381.25;5074556;28;20049;-84
2021/11/20 10:25:36;;;;;;;11.67;4.57;;;;;;;11.24;100.00;101380.28;5070226;28;20127;-84
2021/11/20 10:28:24;;;;;;;9.88;4.90;;;;;;;11.22;100.00;101366.31;5053693;28;20063;-85
2021/11/20 10:31:37;;;;;;;13.70;4.82;;;;;;;11.15;100.00;101374.53;5055817;28;20508;-88
2021/11/20 10:34:37;;;;;;;14.05;5.32;;;;;;;11.08;100.00;101359.97;4985847;28;20046;-86
2021/11/20 10:37:20;;;;;;;11.60;4.78;;;;;;;11.11;100.00;101349.25;5064806;28;20045;-83
2021/11/20 10:40:14;;;;;;;14.27;4.63;;;;;;;11.16;100.00;101360.41;5052593;28;20059;-84
2021/11/20 10:42:52;;;;;;;15.98;5.30;;;;;;;11.13;100.00;101355.31;5073166;28;20040;-85
2021/11/20 10:45:31;;;;;;;17.38;5.57;;;;;;;11.14;100.00;101351.75;5054168;28;20051;-86
2021/11/20 10:48:10;;;;;;;9.60;5.05;;;;;;;11.21;100.00;101338.25;5076353;28;20475;-84
2021/11/20 10:51:19;;;;;;;11.55;5.45;;;;;;;11.10;100.00;101355.44;5054443;28;20512;-83
2021/11/20 10:54:02;;;;;;;14.30;6.82;;;;;;;11.13;100.00;101336.88;5067505;28;20127;-83
2021/11/20 10:56:51;;;;;;;13.88;6.15;;;;;;;11.22;100.00;101338.19;5075319;28;20131;-83
2021/11/20 10:59:37;;;;;;;11.60;5.60;;;;;;;11.22;100.00;101326.78;5061371;28;20112;-84
2021/11/20 11:02:13;;;;;;;16.67;6.30;;;;;;;11.35;100.00;101317.34;5072068;28;20143;-83
2021/11/20 11:04:46;;;;;;;10.68;6.50;;;;;;;11.39;100.00;101322.38;5064734;28;20055;-84
2021/11/20 11:07:40;;;;;;;13.43;6.30;;;;;;;11.39;100.00;101329.41;5075754;28;20136;-83
2021/11/20 11:10:18;;;;;;;20.75;6.85;;;;;;;11.48;100.00;101313.09;5066497;28;20504;-83
2021/11/20 11:13:00;;;;;;;13.88;6.32;;;;;;;11.44;100.00;101308.06;5061448;28;20047;-82
2021/11/20 11:15:49;;;;;;;13.85;6.22;;;;;;;11.42;100.00;101308.16;5026776;28;20183;-84
2021/11/20 11:18:30;;;;;;;16.65;7.40;;;;;;;11.37;100.00;101292.59;5070495;28;20064;-85
2021/11/20 11:21:00;;;;;;;14.50;7.28;;;;;;;11.44;100.00;101290.50;5067784;28;20049;-85
2021/11/20 11:23:41;;;;;;;13.52;6.20;;;;;;;11.40;100.00;101287.16;5068587;28;20055;-83
2021/11/20 11:26:11;;;;;;;11.68;6.10;;;;;;;11.37;100.00;101287.31;5041910;28;20136;-85
2021/11/20 11:28:58;;;;;;;16.83;6.57;;;;;;;11.35;100.00;101278.66;5071629;28;20088;-85
2021/11/20 11:31:32;;;;;;;12.23;6.55;;;;;;;11.36;100.00;101284.78;5059896;28;20075;-84
2021/11/20 11:34:17;;;;;;;12.40;7.47;;;;;;;11.28;100.00;101279.88;5049433;28;20555;-85
2021/11/20 11:36:55;;;;;;;10.20;6.85;;;;;;;11.21;100.00;101275.84;5045297;28;20044;-85
2021/11/20 11:39:38;;;;;;;13.40;6.78;;;;;;;11.10;100.00;101279.03;5053071;28;20063;-84
2021/11/20 11:42:11;;;;;;;14.65;7.75;;;;;;;11.09;100.00;101261.53;5056566;28;20099;-83
2021/11/20 11:45:07;;;;;;;13.85;7.40;;;;;;;11.06;100.00;101258.19;5061371;28;20110;-84
2021/11/20 11:47:55;;;;;;;14.23;7.90;;;;;;;11.10;100.00;101252.69;5037469;28;20700;-84
2021/11/20 11:50:50;;;;;;;15.75;8.00;;;;;;;11.06;100.00;101274.84;5052321;28;20047;-86